sensor_id;sensor_type;location;lat;lon;timestamp;P1;durP1;ratioP1;P2;durP2;ratioP2
28844;SDS011;15976;47.938;7.758;2024-01-11T00:02:05;66.93;;;40.42;;
28844;SDS011;15976;47.938;7.758;2024-01-11T00:04:32;63.15;;;38.58;;
28844;SDS011;15976;47.938;7.758;2024-01-11T00:06:59;66.25;;;39.17;;
28844;SDS011;15976;47.938;7.758;2024-01-11T00:09:26;65.57;;;39.13;;
28844;SDS011;15976;47.938;7.758;2024-01-11T00:11:53;68.28;;;38.88;;
28844;SDS011;15976;47.938;7.758;2024-01-11T00:14:20;65.35;;;40.17;;
28844;SDS011;15976;47.938;7.758;2024-01-11T00:16:47;69.57;;;38.92;;
28844;SDS011;15976;47.938;7.758;2024-01-11T00:19:14;67.07;;;38.88;;
28844;SDS011;15976;47.938;7.758;2024-01-11T00:21:42;65.20;;;39.60;;
28844;SDS011;15976;47.938;7.758;2024-01-11T00:24:09;65.35;;;37.88;;
28844;SDS011;15976;47.938;7.758;2024-01-11T00:26:36;65.65;;;37.13;;
28844;SDS011;15976;47.938;7.758;2024-01-11T00:29:03;63.67;;;38.72;;
28844;SDS011;15976;47.938;7.758;2024-01-11T00:31:31;67.47;;;39.38;;
28844;SDS011;15976;47.938;7.758;2024-01-11T00:33:58;69.05;;;39.67;;
28844;SDS011;15976;47.938;7.758;2024-01-11T00:36:25;63.85;;;38.05;;
28844;SDS011;15976;47.938;7.758;2024-01-11T00:38:52;62.58;;;37.67;;
28844;SDS011;15976;47.938;7.758;2024-01-11T00:41:20;64.10;;;39.50;;
28844;SDS011;15976;47.938;7.758;2024-01-11T00:43:47;64.53;;;39.35;;
28844;SDS011;15976;47.938;7.758;2024-01-11T00:46:14;68.53;;;39.13;;
28844;SDS011;15976;47.938;7.758;2024-01-11T00:48:40;65.85;;;37.75;;
28844;SDS011;15976;47.938;7.758;2024-01-11T00:51:08;59.70;;;37.95;;
28844;SDS011;15976;47.938;7.758;2024-01-11T00:53:35;63.35;;;40.72;;
28844;SDS011;15976;47.938;7.758;2024-01-11T00:56:02;64.68;;;39.15;;
28844;SDS011;15976;47.938;7.758;2024-01-11T00:58:30;63.60;;;39.17;;
28844;SDS011;15976;47.938;7.758;2024-01-11T01:00:57;70.15;;;41.03;;
28844;SDS011;15976;47.938;7.758;2024-01-11T01:03:24;67.93;;;40.10;;
28844;SDS011;15976;47.938;7.758;2024-01-11T01:05:51;66.80;;;39.17;;
28844;SDS011;15976;47.938;7.758;2024-01-11T01:08:19;74.03;;;40.22;;
28844;SDS011;15976;47.938;7.758;2024-01-11T01:10:47;69.40;;;40.33;;
28844;SDS011;15976;47.938;7.758;2024-01-11T01:13:14;67.57;;;41.03;;
28844;SDS011;15976;47.938;7.758;2024-01-11T01:15:41;63.33;;;39.08;;
28844;SDS011;15976;47.938;7.758;2024-01-11T01:18:08;60.50;;;37.47;;
28844;SDS011;15976;47.938;7.758;2024-01-11T01:20:35;66.00;;;38.65;;
28844;SDS011;15976;47.938;7.758;2024-01-11T01:23:02;64.75;;;38.92;;
28844;SDS011;15976;47.938;7.758;2024-01-11T01:25:30;64.75;;;39.78;;
28844;SDS011;15976;47.938;7.758;2024-01-11T01:27:57;68.40;;;39.70;;
28844;SDS011;15976;47.938;7.758;2024-01-11T01:30:25;66.72;;;39.45;;
28844;SDS011;15976;47.938;7.758;2024-01-11T01:32:53;67.22;;;39.30;;
28844;SDS011;15976;47.938;7.758;2024-01-11T01:35:20;67.05;;;40.05;;
28844;SDS011;15976;47.938;7.758;2024-01-11T01:37:48;66.95;;;39.28;;
28844;SDS011;15976;47.938;7.758;2024-01-11T01:40:15;67.75;;;40.88;;
28844;SDS011;15976;47.938;7.758;2024-01-11T01:42:42;69.00;;;38.97;;
28844;SDS011;15976;47.938;7.758;2024-01-11T01:45:10;63.13;;;38.80;;
28844;SDS011;15976;47.938;7.758;2024-01-11T01:47:39;63.90;;;37.75;;
28844;SDS011;15976;47.938;7.758;2024-01-11T01:50:07;64.90;;;39.28;;
28844;SDS011;15976;47.938;7.758;2024-01-11T01:52:37;66.68;;;39.03;;
28844;SDS011;15976;47.938;7.758;2024-01-11T01:55:07;60.95;;;37.65;;
28844;SDS011;15976;47.938;7.758;2024-01-11T01:57:36;64.55;;;38.53;;
28844;SDS011;15976;47.938;7.758;2024-01-11T02:00:06;65.68;;;39.00;;
28844;SDS011;15976;47.938;7.758;2024-01-11T02:02:38;64.85;;;38.03;;
28844;SDS011;15976;47.938;7.758;2024-01-11T02:05:06;67.18;;;39.97;;
28844;SDS011;15976;47.938;7.758;2024-01-11T02:07:34;67.97;;;39.00;;
28844;SDS011;15976;47.938;7.758;2024-01-11T02:10:01;66.40;;;40.80;;
28844;SDS011;15976;47.938;7.758;2024-01-11T02:12:30;69.93;;;40.33;;
28844;SDS011;15976;47.938;7.758;2024-01-11T02:14:57;65.85;;;37.78;;
28844;SDS011;15976;47.938;7.758;2024-01-11T02:17:25;65.47;;;38.90;;
28844;SDS011;15976;47.938;7.758;2024-01-11T02:19:52;64.22;;;37.95;;
28844;SDS011;15976;47.938;7.758;2024-01-11T02:22:29;66.43;;;37.58;;
28844;SDS011;15976;47.938;7.758;2024-01-11T02:25:01;65.07;;;39.17;;
28844;SDS011;15976;47.938;7.758;2024-01-11T02:27:28;69.72;;;40.72;;
28844;SDS011;15976;47.938;7.758;2024-01-11T02:29:55;63.03;;;39.53;;
28844;SDS011;15976;47.938;7.758;2024-01-11T02:32:22;69.97;;;42.53;;
28844;SDS011;15976;47.938;7.758;2024-01-11T02:34:50;66.28;;;40.63;;
28844;SDS011;15976;47.938;7.758;2024-01-11T02:37:17;67.72;;;40.83;;
28844;SDS011;15976;47.938;7.758;2024-01-11T02:39:44;68.85;;;40.67;;
28844;SDS011;15976;47.938;7.758;2024-01-11T02:42:11;68.70;;;41.25;;
28844;SDS011;15976;47.938;7.758;2024-01-11T02:44:38;73.00;;;42.38;;
28844;SDS011;15976;47.938;7.758;2024-01-11T02:47:05;76.20;;;43.60;;
28844;SDS011;15976;47.938;7.758;2024-01-11T02:49:33;67.93;;;41.33;;
28844;SDS011;15976;47.938;7.758;2024-01-11T02:52:00;72.05;;;41.55;;
28844;SDS011;15976;47.938;7.758;2024-01-11T02:54:27;71.18;;;43.40;;
28844;SDS011;15976;47.938;7.758;2024-01-11T02:56:54;73.25;;;42.58;;
28844;SDS011;15976;47.938;7.758;2024-01-11T02:59:23;68.60;;;40.75;;
28844;SDS011;15976;47.938;7.758;2024-01-11T03:01:51;72.22;;;41.50;;
28844;SDS011;15976;47.938;7.758;2024-01-11T03:04:18;74.40;;;42.70;;
28844;SDS011;15976;47.938;7.758;2024-01-11T03:06:45;71.80;;;41.63;;
28844;SDS011;15976;47.938;7.758;2024-01-11T03:09:12;75.40;;;42.28;;
28844;SDS011;15976;47.938;7.758;2024-01-11T03:11:39;76.47;;;42.45;;
28844;SDS011;15976;47.938;7.758;2024-01-11T03:14:07;72.97;;;41.60;;
28844;SDS011;15976;47.938;7.758;2024-01-11T03:16:34;70.38;;;41.53;;
28844;SDS011;15976;47.938;7.758;2024-01-11T03:19:01;71.72;;;41.40;;
28844;SDS011;15976;47.938;7.758;2024-01-11T03:21:29;75.78;;;41.58;;
28844;SDS011;15976;47.938;7.758;2024-01-11T03:23:56;64.93;;;39.63;;
28844;SDS011;15976;47.938;7.758;2024-01-11T03:26:24;67.07;;;41.58;;
28844;SDS011;15976;47.938;7.758;2024-01-11T03:28:51;69.88;;;39.58;;
28844;SDS011;15976;47.938;7.758;2024-01-11T03:31:18;65.18;;;38.97;;
28844;SDS011;15976;47.938;7.758;2024-01-11T03:33:45;69.70;;;39.80;;
28844;SDS011;15976;47.938;7.758;2024-01-11T03:36:12;70.25;;;41.35;;
28844;SDS011;15976;47.938;7.758;2024-01-11T03:38:39;69.40;;;40.50;;
28844;SDS011;15976;47.938;7.758;2024-01-11T03:41:09;63.25;;;39.67;;
28844;SDS011;15976;47.938;7.758;2024-01-11T03:43:37;65.13;;;40.65;;
28844;SDS011;15976;47.938;7.758;2024-01-11T03:46:04;70.95;;;40.58;;
28844;SDS011;15976;47.938;7.758;2024-01-11T03:48:31;73.55;;;42.40;;
28844;SDS011;15976;47.938;7.758;2024-01-11T03:50:58;71.03;;;42.05;;
28844;SDS011;15976;47.938;7.758;2024-01-11T03:53:25;72.55;;;43.15;;
28844;SDS011;15976;47.938;7.758;2024-01-11T03:55:53;69.72;;;42.17;;
28844;SDS011;15976;47.938;7.758;2024-01-11T03:58:20;69.40;;;41.67;;
28844;SDS011;15976;47.938;7.758;2024-01-11T04:00:47;69.30;;;41.90;;
28844;SDS011;15976;47.938;7.758;2024-01-11T04:03:15;66.88;;;41.15;;
28844;SDS011;15976;47.938;7.758;2024-01-11T04:05:42;69.85;;;39.72;;
28844;SDS011;15976;47.938;7.758;2024-01-11T04:08:09;69.13;;;40.20;;
28844;SDS011;15976;47.938;7.758;2024-01-11T04:10:36;67.53;;;40.30;;
28844;SDS011;15976;47.938;7.758;2024-01-11T04:13:03;71.18;;;41.35;;
28844;SDS011;15976;47.938;7.758;2024-01-11T04:15:30;66.88;;;39.10;;
28844;SDS011;15976;47.938;7.758;2024-01-11T04:17:57;68.75;;;39.72;;
28844;SDS011;15976;47.938;7.758;2024-01-11T04:20:25;71.28;;;41.13;;
28844;SDS011;15976;47.938;7.758;2024-01-11T04:22:52;64.82;;;40.03;;
28844;SDS011;15976;47.938;7.758;2024-01-11T04:25:19;65.65;;;39.47;;
28844;SDS011;15976;47.938;7.758;2024-01-11T04:27:47;70.68;;;40.47;;
28844;SDS011;15976;47.938;7.758;2024-01-11T04:30:14;63.03;;;39.30;;
28844;SDS011;15976;47.938;7.758;2024-01-11T04:32:41;61.08;;;38.80;;
28844;SDS011;15976;47.938;7.758;2024-01-11T04:35:09;63.67;;;39.10;;
28844;SDS011;15976;47.938;7.758;2024-01-11T04:37:39;71.85;;;40.85;;
28844;SDS011;15976;47.938;7.758;2024-01-11T04:40:07;67.03;;;40.63;;
28844;SDS011;15976;47.938;7.758;2024-01-11T04:42:34;66.78;;;40.03;;
28844;SDS011;15976;47.938;7.758;2024-01-11T04:45:01;65.63;;;39.55;;
28844;SDS011;15976;47.938;7.758;2024-01-11T04:47:28;66.88;;;40.20;;
28844;SDS011;15976;47.938;7.758;2024-01-11T04:49:55;68.35;;;40.83;;
28844;SDS011;15976;47.938;7.758;2024-01-11T04:52:22;69.68;;;41.42;;
28844;SDS011;15976;47.938;7.758;2024-01-11T04:54:49;69.85;;;39.70;;
28844;SDS011;15976;47.938;7.758;2024-01-11T04:57:16;67.35;;;41.28;;
28844;SDS011;15976;47.938;7.758;2024-01-11T04:59:44;71.80;;;41.42;;
28844;SDS011;15976;47.938;7.758;2024-01-11T05:02:11;68.47;;;41.80;;
28844;SDS011;15976;47.938;7.758;2024-01-11T05:04:38;70.97;;;41.53;;
28844;SDS011;15976;47.938;7.758;2024-01-11T05:07:05;72.13;;;41.38;;
28844;SDS011;15976;47.938;7.758;2024-01-11T05:09:32;70.68;;;41.47;;
28844;SDS011;15976;47.938;7.758;2024-01-11T05:11:59;74.45;;;42.28;;
28844;SDS011;15976;47.938;7.758;2024-01-11T05:14:27;64.93;;;40.70;;
28844;SDS011;15976;47.938;7.758;2024-01-11T05:16:54;67.80;;;40.55;;
28844;SDS011;15976;47.938;7.758;2024-01-11T05:19:21;68.38;;;40.47;;
28844;SDS011;15976;47.938;7.758;2024-01-11T05:21:49;63.88;;;39.33;;
28844;SDS011;15976;47.938;7.758;2024-01-11T05:24:16;73.85;;;42.47;;
28844;SDS011;15976;47.938;7.758;2024-01-11T05:26:43;69.78;;;41.65;;
28844;SDS011;15976;47.938;7.758;2024-01-11T05:29:10;71.95;;;43.40;;
28844;SDS011;15976;47.938;7.758;2024-01-11T05:31:37;71.57;;;42.28;;
28844;SDS011;15976;47.938;7.758;2024-01-11T05:34:04;75.82;;;45.38;;
28844;SDS011;15976;47.938;7.758;2024-01-11T05:36:32;90.82;;;54.33;;
28844;SDS011;15976;47.938;7.758;2024-01-11T05:38:59;100.57;;;59.38;;
28844;SDS011;15976;47.938;7.758;2024-01-11T05:41:26;97.47;;;57.65;;
28844;SDS011;15976;47.938;7.758;2024-01-11T05:43:53;90.15;;;53.42;;
28844;SDS011;15976;47.938;7.758;2024-01-11T05:46:21;92.10;;;53.60;;
28844;SDS011;15976;47.938;7.758;2024-01-11T05:48:48;78.65;;;46.05;;
28844;SDS011;15976;47.938;7.758;2024-01-11T05:51:16;80.68;;;47.35;;
28844;SDS011;15976;47.938;7.758;2024-01-11T05:53:43;81.18;;;47.15;;
28844;SDS011;15976;47.938;7.758;2024-01-11T05:56:10;74.65;;;47.13;;
28844;SDS011;15976;47.938;7.758;2024-01-11T05:58:38;80.22;;;47.40;;
28844;SDS011;15976;47.938;7.758;2024-01-11T06:01:06;78.07;;;47.20;;
28844;SDS011;15976;47.938;7.758;2024-01-11T06:03:34;79.68;;;46.70;;
28844;SDS011;15976;47.938;7.758;2024-01-11T06:06:02;79.43;;;46.22;;
28844;SDS011;15976;47.938;7.758;2024-01-11T06:08:30;75.35;;;44.45;;
28844;SDS011;15976;47.938;7.758;2024-01-11T06:10:57;75.10;;;44.17;;
28844;SDS011;15976;47.938;7.758;2024-01-11T06:13:25;77.05;;;45.33;;
28844;SDS011;15976;47.938;7.758;2024-01-11T06:15:52;74.75;;;44.67;;
28844;SDS011;15976;47.938;7.758;2024-01-11T06:18:20;76.03;;;45.45;;
28844;SDS011;15976;47.938;7.758;2024-01-11T06:20:47;80.10;;;46.58;;
28844;SDS011;15976;47.938;7.758;2024-01-11T06:23:14;81.38;;;47.15;;
28844;SDS011;15976;47.938;7.758;2024-01-11T06:25:43;76.40;;;44.38;;
28844;SDS011;15976;47.938;7.758;2024-01-11T06:28:12;75.70;;;46.88;;
28844;SDS011;15976;47.938;7.758;2024-01-11T06:30:40;71.63;;;44.42;;
28844;SDS011;15976;47.938;7.758;2024-01-11T06:33:07;83.15;;;51.08;;
28844;SDS011;15976;47.938;7.758;2024-01-11T06:35:35;72.65;;;44.80;;
28844;SDS011;15976;47.938;7.758;2024-01-11T06:38:02;75.93;;;46.75;;
28844;SDS011;15976;47.938;7.758;2024-01-11T06:40:29;76.82;;;42.88;;
28844;SDS011;15976;47.938;7.758;2024-01-11T06:42:56;84.20;;;45.17;;
28844;SDS011;15976;47.938;7.758;2024-01-11T06:45:24;75.00;;;46.22;;
28844;SDS011;15976;47.938;7.758;2024-01-11T06:47:51;73.28;;;44.20;;
28844;SDS011;15976;47.938;7.758;2024-01-11T06:50:18;78.68;;;45.35;;
28844;SDS011;15976;47.938;7.758;2024-01-11T06:52:46;73.15;;;43.70;;
28844;SDS011;15976;47.938;7.758;2024-01-11T06:55:13;71.68;;;43.20;;
28844;SDS011;15976;47.938;7.758;2024-01-11T06:57:40;75.55;;;44.78;;
28844;SDS011;15976;47.938;7.758;2024-01-11T07:00:07;76.50;;;45.03;;
28844;SDS011;15976;47.938;7.758;2024-01-11T07:02:35;72.90;;;45.92;;
28844;SDS011;15976;47.938;7.758;2024-01-11T07:05:03;79.47;;;46.30;;
28844;SDS011;15976;47.938;7.758;2024-01-11T07:07:30;73.82;;;45.22;;
28844;SDS011;15976;47.938;7.758;2024-01-11T07:09:59;80.15;;;45.50;;
28844;SDS011;15976;47.938;7.758;2024-01-11T07:12:26;78.95;;;46.13;;
28844;SDS011;15976;47.938;7.758;2024-01-11T07:14:53;74.78;;;47.53;;
28844;SDS011;15976;47.938;7.758;2024-01-11T07:17:21;74.60;;;45.85;;
28844;SDS011;15976;47.938;7.758;2024-01-11T07:19:49;83.10;;;49.08;;
28844;SDS011;15976;47.938;7.758;2024-01-11T07:22:16;106.47;;;61.92;;
28844;SDS011;15976;47.938;7.758;2024-01-11T07:24:43;89.90;;;53.08;;
28844;SDS011;15976;47.938;7.758;2024-01-11T07:27:10;90.68;;;50.97;;
28844;SDS011;15976;47.938;7.758;2024-01-11T07:29:37;76.85;;;47.25;;
28844;SDS011;15976;47.938;7.758;2024-01-11T07:32:04;85.15;;;49.95;;
28844;SDS011;15976;47.938;7.758;2024-01-11T07:34:32;90.53;;;52.75;;
28844;SDS011;15976;47.938;7.758;2024-01-11T07:37:00;89.57;;;55.13;;
28844;SDS011;15976;47.938;7.758;2024-01-11T07:39:27;86.65;;;52.20;;
28844;SDS011;15976;47.938;7.758;2024-01-11T07:41:57;85.70;;;48.28;;
28844;SDS011;15976;47.938;7.758;2024-01-11T07:44:24;75.40;;;44.80;;
28844;SDS011;15976;47.938;7.758;2024-01-11T07:46:51;78.60;;;45.65;;
28844;SDS011;15976;47.938;7.758;2024-01-11T07:49:22;74.35;;;46.20;;
28844;SDS011;15976;47.938;7.758;2024-01-11T07:51:49;81.50;;;45.97;;
28844;SDS011;15976;47.938;7.758;2024-01-11T07:54:16;82.80;;;47.70;;
28844;SDS011;15976;47.938;7.758;2024-01-11T07:56:43;79.45;;;46.13;;
28844;SDS011;15976;47.938;7.758;2024-01-11T07:59:10;77.40;;;47.40;;
28844;SDS011;15976;47.938;7.758;2024-01-11T08:01:41;80.60;;;47.35;;
28844;SDS011;15976;47.938;7.758;2024-01-11T08:04:09;79.40;;;47.35;;
28844;SDS011;15976;47.938;7.758;2024-01-11T08:06:36;80.35;;;46.47;;
28844;SDS011;15976;47.938;7.758;2024-01-11T08:09:04;83.53;;;47.35;;
28844;SDS011;15976;47.938;7.758;2024-01-11T08:11:32;81.25;;;48.25;;
28844;SDS011;15976;47.938;7.758;2024-01-11T08:14:03;81.55;;;48.30;;
28844;SDS011;15976;47.938;7.758;2024-01-11T08:16:32;82.03;;;47.50;;
28844;SDS011;15976;47.938;7.758;2024-01-11T08:19:00;84.40;;;48.80;;
28844;SDS011;15976;47.938;7.758;2024-01-11T08:21:30;84.30;;;51.13;;
28844;SDS011;15976;47.938;7.758;2024-01-11T08:23:57;86.85;;;51.40;;
28844;SDS011;15976;47.938;7.758;2024-01-11T08:26:28;92.22;;;52.10;;
28844;SDS011;15976;47.938;7.758;2024-01-11T08:28:57;89.40;;;52.28;;
28844;SDS011;15976;47.938;7.758;2024-01-11T08:31:24;86.93;;;52.58;;
28844;SDS011;15976;47.938;7.758;2024-01-11T08:33:52;89.00;;;52.83;;
28844;SDS011;15976;47.938;7.758;2024-01-11T08:36:20;92.93;;;52.25;;
28844;SDS011;15976;47.938;7.758;2024-01-11T08:38:47;91.85;;;53.63;;
28844;SDS011;15976;47.938;7.758;2024-01-11T08:41:15;87.28;;;48.80;;
28844;SDS011;15976;47.938;7.758;2024-01-11T08:43:42;89.60;;;50.45;;
28844;SDS011;15976;47.938;7.758;2024-01-11T08:46:09;90.60;;;53.67;;
28844;SDS011;15976;47.938;7.758;2024-01-11T08:48:36;103.10;;;58.30;;
28844;SDS011;15976;47.938;7.758;2024-01-11T08:51:04;99.07;;;55.85;;
28844;SDS011;15976;47.938;7.758;2024-01-11T08:53:31;97.65;;;57.50;;
28844;SDS011;15976;47.938;7.758;2024-01-11T08:55:58;104.60;;;57.78;;
28844;SDS011;15976;47.938;7.758;2024-01-11T08:58:25;105.57;;;58.47;;
28844;SDS011;15976;47.938;7.758;2024-01-11T09:00:53;103.50;;;61.42;;
28844;SDS011;15976;47.938;7.758;2024-01-11T09:03:20;110.80;;;65.97;;
28844;SDS011;15976;47.938;7.758;2024-01-11T09:05:47;111.85;;;64.05;;
28844;SDS011;15976;47.938;7.758;2024-01-11T09:08:15;140.88;;;77.78;;
28844;SDS011;15976;47.938;7.758;2024-01-11T09:10:42;132.90;;;78.05;;
28844;SDS011;15976;47.938;7.758;2024-01-11T09:13:09;136.63;;;78.75;;
28844;SDS011;15976;47.938;7.758;2024-01-11T09:15:39;128.68;;;76.57;;
28844;SDS011;15976;47.938;7.758;2024-01-11T09:18:07;131.68;;;74.32;;
28844;SDS011;15976;47.938;7.758;2024-01-11T09:20:34;143.35;;;79.10;;
28844;SDS011;15976;47.938;7.758;2024-01-11T09:23:02;171.10;;;95.47;;
28844;SDS011;15976;47.938;7.758;2024-01-11T09:25:32;168.45;;;93.60;;
28844;SDS011;15976;47.938;7.758;2024-01-11T09:27:59;383.10;;;208.05;;
28844;SDS011;15976;47.938;7.758;2024-01-11T09:30:27;357.05;;;192.43;;
28844;SDS011;15976;47.938;7.758;2024-01-11T09:32:54;272.38;;;142.70;;
28844;SDS011;15976;47.938;7.758;2024-01-11T09:35:22;253.02;;;136.27;;
28844;SDS011;15976;47.938;7.758;2024-01-11T09:37:50;226.93;;;121.45;;
28844;SDS011;15976;47.938;7.758;2024-01-11T09:40:18;219.18;;;116.18;;
28844;SDS011;15976;47.938;7.758;2024-01-11T09:42:45;189.60;;;101.63;;
28844;SDS011;15976;47.938;7.758;2024-01-11T09:45:13;144.43;;;77.82;;
28844;SDS011;15976;47.938;7.758;2024-01-11T09:47:44;103.60;;;59.28;;
28844;SDS011;15976;47.938;7.758;2024-01-11T09:50:17;93.50;;;53.85;;
28844;SDS011;15976;47.938;7.758;2024-01-11T09:52:49;100.07;;;54.83;;
28844;SDS011;15976;47.938;7.758;2024-01-11T09:55:17;94.18;;;54.35;;
28844;SDS011;15976;47.938;7.758;2024-01-11T09:57:45;107.13;;;60.17;;
28844;SDS011;15976;47.938;7.758;2024-01-11T10:00:17;99.50;;;57.25;;
28844;SDS011;15976;47.938;7.758;2024-01-11T10:02:47;94.40;;;53.97;;
28844;SDS011;15976;47.938;7.758;2024-01-11T10:05:18;103.80;;;56.25;;
28844;SDS011;15976;47.938;7.758;2024-01-11T10:07:45;100.78;;;57.13;;
28844;SDS011;15976;47.938;7.758;2024-01-11T10:10:12;98.93;;;54.90;;
28844;SDS011;15976;47.938;7.758;2024-01-11T10:12:42;101.28;;;57.45;;
28844;SDS011;15976;47.938;7.758;2024-01-11T10:15:10;99.63;;;57.33;;
28844;SDS011;15976;47.938;7.758;2024-01-11T10:17:41;96.43;;;56.25;;
28844;SDS011;15976;47.938;7.758;2024-01-11T10:20:11;90.05;;;50.08;;
28844;SDS011;15976;47.938;7.758;2024-01-11T10:22:41;95.47;;;50.75;;
28844;SDS011;15976;47.938;7.758;2024-01-11T10:27:40;79.78;;;44.88;;
28844;SDS011;15976;47.938;7.758;2024-01-11T10:30:12;82.78;;;47.33;;
28844;SDS011;15976;47.938;7.758;2024-01-11T10:32:46;83.18;;;46.42;;
28844;SDS011;15976;47.938;7.758;2024-01-11T10:35:14;80.68;;;46.50;;
28844;SDS011;15976;47.938;7.758;2024-01-11T10:37:44;84.20;;;46.30;;
28844;SDS011;15976;47.938;7.758;2024-01-11T10:40:11;82.28;;;46.33;;
28844;SDS011;15976;47.938;7.758;2024-01-11T10:42:41;76.57;;;45.70;;
28844;SDS011;15976;47.938;7.758;2024-01-11T10:45:17;86.40;;;47.53;;
28844;SDS011;15976;47.938;7.758;2024-01-11T10:47:53;86.55;;;45.97;;
28844;SDS011;15976;47.938;7.758;2024-01-11T10:50:30;83.13;;;47.42;;
28844;SDS011;15976;47.938;7.758;2024-01-11T10:55:31;90.60;;;48.20;;
28844;SDS011;15976;47.938;7.758;2024-01-11T10:58:00;84.05;;;46.50;;
28844;SDS011;15976;47.938;7.758;2024-01-11T11:00:28;86.47;;;46.65;;
28844;SDS011;15976;47.938;7.758;2024-01-11T11:02:56;83.97;;;46.72;;
28844;SDS011;15976;47.938;7.758;2024-01-11T11:05:27;90.28;;;48.30;;
28844;SDS011;15976;47.938;7.758;2024-01-11T11:07:57;88.95;;;48.70;;
28844;SDS011;15976;47.938;7.758;2024-01-11T11:10:28;96.47;;;50.20;;
28844;SDS011;15976;47.938;7.758;2024-01-11T11:12:56;91.35;;;49.80;;
28844;SDS011;15976;47.938;7.758;2024-01-11T11:15:26;88.10;;;48.13;;
28844;SDS011;15976;47.938;7.758;2024-01-11T11:17:55;94.22;;;49.00;;
28844;SDS011;15976;47.938;7.758;2024-01-11T11:20:23;91.38;;;47.40;;
28844;SDS011;15976;47.938;7.758;2024-01-11T11:23:03;87.53;;;45.53;;
28844;SDS011;15976;47.938;7.758;2024-01-11T11:25:32;88.88;;;47.25;;
28844;SDS011;15976;47.938;7.758;2024-01-11T11:28:00;81.45;;;46.45;;
28844;SDS011;15976;47.938;7.758;2024-01-11T11:30:31;89.17;;;47.23;;
28844;SDS011;15976;47.938;7.758;2024-01-11T11:35:58;78.20;;;46.78;;
28844;SDS011;15976;47.938;7.758;2024-01-11T11:38:26;80.05;;;46.33;;
28844;SDS011;15976;47.938;7.758;2024-01-11T11:40:58;80.82;;;48.35;;
28844;SDS011;15976;47.938;7.758;2024-01-11T11:43:27;81.68;;;46.55;;
28844;SDS011;15976;47.938;7.758;2024-01-11T11:45:55;83.10;;;46.88;;
28844;SDS011;15976;47.938;7.758;2024-01-11T11:53:43;84.22;;;46.50;;
28844;SDS011;15976;47.938;7.758;2024-01-11T11:56:12;76.55;;;43.70;;
28844;SDS011;15976;47.938;7.758;2024-01-11T11:58:43;87.28;;;46.70;;
28844;SDS011;15976;47.938;7.758;2024-01-11T12:01:12;86.10;;;44.83;;
28844;SDS011;15976;47.938;7.758;2024-01-11T12:03:46;92.10;;;48.25;;
28844;SDS011;15976;47.938;7.758;2024-01-11T12:06:16;85.10;;;47.30;;
28844;SDS011;15976;47.938;7.758;2024-01-11T12:08:46;87.03;;;45.35;;
28844;SDS011;15976;47.938;7.758;2024-01-11T12:11:15;92.13;;;49.30;;
28844;SDS011;15976;47.938;7.758;2024-01-11T12:13:46;90.70;;;47.40;;
28844;SDS011;15976;47.938;7.758;2024-01-11T12:16:16;93.78;;;50.83;;
28844;SDS011;15976;47.938;7.758;2024-01-11T12:18:43;91.07;;;48.63;;
28844;SDS011;15976;47.938;7.758;2024-01-11T12:21:13;85.80;;;47.58;;
28844;SDS011;15976;47.938;7.758;2024-01-11T12:23:40;87.95;;;47.92;;
28844;SDS011;15976;47.938;7.758;2024-01-11T12:26:10;96.65;;;48.08;;
28844;SDS011;15976;47.938;7.758;2024-01-11T12:28:41;91.82;;;48.50;;
28844;SDS011;15976;47.938;7.758;2024-01-11T12:31:11;92.05;;;48.50;;
28844;SDS011;15976;47.938;7.758;2024-01-11T12:33:40;84.80;;;47.97;;
28844;SDS011;15976;47.938;7.758;2024-01-11T12:36:08;80.25;;;46.55;;
28844;SDS011;15976;47.938;7.758;2024-01-11T12:38:36;85.95;;;49.03;;
28844;SDS011;15976;47.938;7.758;2024-01-11T12:41:04;91.78;;;48.10;;
28844;SDS011;15976;47.938;7.758;2024-01-11T12:43:33;81.07;;;45.40;;
28844;SDS011;15976;47.938;7.758;2024-01-11T12:46:01;95.50;;;50.15;;
28844;SDS011;15976;47.938;7.758;2024-01-11T12:48:29;107.35;;;53.08;;
28844;SDS011;15976;47.938;7.758;2024-01-11T12:50:57;141.18;;;61.58;;
28844;SDS011;15976;47.938;7.758;2024-01-11T12:53:39;119.28;;;55.33;;
28844;SDS011;15976;47.938;7.758;2024-01-11T12:56:07;86.78;;;49.42;;
28844;SDS011;15976;47.938;7.758;2024-01-11T12:58:37;91.22;;;51.30;;
28844;SDS011;15976;47.938;7.758;2024-01-11T13:01:08;89.95;;;49.08;;
28844;SDS011;15976;47.938;7.758;2024-01-11T13:03:37;92.32;;;51.17;;
28844;SDS011;15976;47.938;7.758;2024-01-11T13:06:06;112.93;;;58.30;;
28844;SDS011;15976;47.938;7.758;2024-01-11T13:08:33;88.25;;;52.22;;
28844;SDS011;15976;47.938;7.758;2024-01-11T13:11:07;88.53;;;51.03;;
28844;SDS011;15976;47.938;7.758;2024-01-11T13:13:34;105.25;;;57.55;;
28844;SDS011;15976;47.938;7.758;2024-01-11T13:16:02;96.38;;;54.03;;
28844;SDS011;15976;47.938;7.758;2024-01-11T13:18:32;92.47;;;54.22;;
28844;SDS011;15976;47.938;7.758;2024-01-11T13:20:59;91.25;;;50.47;;
28844;SDS011;15976;47.938;7.758;2024-01-11T13:23:27;89.60;;;50.08;;
28844;SDS011;15976;47.938;7.758;2024-01-11T13:25:54;91.25;;;49.83;;
28844;SDS011;15976;47.938;7.758;2024-01-11T13:28:21;92.30;;;50.40;;
28844;SDS011;15976;47.938;7.758;2024-01-11T13:30:49;89.22;;;51.10;;
28844;SDS011;15976;47.938;7.758;2024-01-11T13:33:16;86.70;;;49.78;;
28844;SDS011;15976;47.938;7.758;2024-01-11T13:35:45;86.13;;;49.58;;
28844;SDS011;15976;47.938;7.758;2024-01-11T13:38:12;89.57;;;50.90;;
28844;SDS011;15976;47.938;7.758;2024-01-11T13:40:39;94.45;;;51.72;;
28844;SDS011;15976;47.938;7.758;2024-01-11T13:43:09;92.53;;;52.17;;
28844;SDS011;15976;47.938;7.758;2024-01-11T13:45:36;95.97;;;50.67;;
28844;SDS011;15976;47.938;7.758;2024-01-11T13:48:03;88.93;;;48.78;;
28844;SDS011;15976;47.938;7.758;2024-01-11T13:50:32;91.15;;;49.88;;
28844;SDS011;15976;47.938;7.758;2024-01-11T13:52:59;90.28;;;50.38;;
28844;SDS011;15976;47.938;7.758;2024-01-11T13:55:28;85.38;;;48.80;;
28844;SDS011;15976;47.938;7.758;2024-01-11T13:58:05;92.38;;;49.83;;
28844;SDS011;15976;47.938;7.758;2024-01-11T14:00:33;93.97;;;50.53;;
28844;SDS011;15976;47.938;7.758;2024-01-11T14:03:01;92.93;;;48.50;;
28844;SDS011;15976;47.938;7.758;2024-01-11T14:05:30;92.45;;;51.78;;
28844;SDS011;15976;47.938;7.758;2024-01-11T14:07:58;88.40;;;51.15;;
28844;SDS011;15976;47.938;7.758;2024-01-11T14:10:30;97.00;;;53.38;;
28844;SDS011;15976;47.938;7.758;2024-01-11T14:12:58;98.63;;;52.13;;
28844;SDS011;15976;47.938;7.758;2024-01-11T14:15:29;134.77;;;72.43;;
28844;SDS011;15976;47.938;7.758;2024-01-11T14:17:57;105.75;;;58.40;;
28844;SDS011;15976;47.938;7.758;2024-01-11T14:20:25;95.25;;;53.78;;
28844;SDS011;15976;47.938;7.758;2024-01-11T14:22:54;100.28;;;56.42;;
28844;SDS011;15976;47.938;7.758;2024-01-11T14:25:23;98.63;;;54.35;;
28844;SDS011;15976;47.938;7.758;2024-01-11T14:27:51;95.43;;;52.75;;
28844;SDS011;15976;47.938;7.758;2024-01-11T14:30:19;179.60;;;86.07;;
28844;SDS011;15976;47.938;7.758;2024-01-11T14:32:49;189.65;;;97.10;;
28844;SDS011;15976;47.938;7.758;2024-01-11T14:35:17;97.07;;;53.65;;
28844;SDS011;15976;47.938;7.758;2024-01-11T14:37:45;99.70;;;54.72;;
28844;SDS011;15976;47.938;7.758;2024-01-11T14:40:13;94.60;;;52.40;;